sensor_id;sensor_type;location;lat;lon;timestamp;pressure;altitude;pressure_sealevel;temperature;humidity
67842;BME280;54642;59.126;37.876;2023-05-02T00:00:45;100293.81;;;5.91;61.88
67842;BME280;54642;59.126;37.876;2023-05-02T00:03:11;100256.56;;;5.67;61.97
67842;BME280;54642;59.126;37.876;2023-05-02T00:05:38;100303.28;;;5.92;61.74
67842;BME280;54642;59.126;37.876;2023-05-02T00:08:05;100242.44;;;5.47;61.95
67842;BME280;54642;59.126;37.876;2023-05-02T00:10:31;100225.97;;;5.35;61.94
67842;BME280;54642;59.126;37.876;2023-05-02T00:12:57;100301.38;;;5.82;62.14
67842;BME280;54642;59.126;37.876;2023-05-02T00:15:23;100311.72;;;5.85;62.01
67842;BME280;54642;59.126;37.876;2023-05-02T00:17:49;100288.25;;;5.68;62.27
67842;BME280;54642;59.126;37.876;2023-05-02T00:20:15;100225.94;;;5.34;62.28
67842;BME280;54642;59.126;37.876;2023-05-02T00:22:41;100241.31;;;5.32;62.17
67842;BME280;54642;59.126;37.876;2023-05-02T00:25:08;100216.19;;;5.16;62.10
67842;BME280;54642;59.126;37.876;2023-05-02T00:27:34;100335.69;;;5.82;62.02
67842;BME280;54642;59.126;37.876;2023-05-02T00:30:00;100328.78;;;5.80;62.44
67842;BME280;54642;59.126;37.876;2023-05-02T00:32:26;100279.31;;;5.49;62.32
67842;BME280;54642;59.126;37.876;2023-05-02T00:34:53;100283.72;;;5.53;62.22
67842;BME280;54642;59.126;37.876;2023-05-02T00:37:19;100342.38;;;5.72;62.61
67842;BME280;54642;59.126;37.876;2023-05-02T00:39:45;100289.50;;;5.43;62.55
67842;BME280;54642;59.126;37.876;2023-05-02T00:42:11;100251.31;;;5.19;62.77
67842;BME280;54642;59.126;37.876;2023-05-02T00:44:37;100257.16;;;5.11;62.57
67842;BME280;54642;59.126;37.876;2023-05-02T00:47:05;100259.78;;;5.13;62.96
67842;BME280;54642;59.126;37.876;2023-05-02T00:49:31;100331.84;;;5.60;62.82
67842;BME280;54642;59.126;37.876;2023-05-02T00:51:57;100355.19;;;5.71;62.94
67842;BME280;54642;59.126;37.876;2023-05-02T00:54:24;100364.56;;;5.70;62.81
67842;BME280;54642;59.126;37.876;2023-05-02T00:56:50;100351.66;;;5.66;62.79
67842;BME280;54642;59.126;37.876;2023-05-02T00:59:16;100262.34;;;5.13;62.91
67842;BME280;54642;59.126;37.876;2023-05-02T01:04:39;100288.22;;;5.21;63.03
67842;BME280;54642;59.126;37.876;2023-05-02T01:09:56;100357.47;;;5.57;62.30
67842;BME280;54642;59.126;37.876;2023-05-02T01:12:44;100360.00;;;5.56;63.32
67842;BME280;54642;59.126;37.876;2023-05-02T01:15:15;100355.66;;;5.51;62.80
67842;BME280;54642;59.126;37.876;2023-05-02T01:17:45;100369.44;;;5.55;62.78
67842;BME280;54642;59.126;37.876;2023-05-02T01:20:14;100258.38;;;4.86;62.76
67842;BME280;54642;59.126;37.876;2023-05-02T01:22:42;100371.03;;;5.50;63.02
67842;BME280;54642;59.126;37.876;2023-05-02T01:28:13;100371.03;;;5.50;62.98
67842;BME280;54642;59.126;37.876;2023-05-02T01:30:45;100377.94;;;5.51;62.67
67842;BME280;54642;59.126;37.876;2023-05-02T01:33:14;100227.06;;;4.62;62.77
67842;BME280;54642;59.126;37.876;2023-05-02T01:35:42;100356.91;;;5.29;62.71
67842;BME280;54642;59.126;37.876;2023-05-02T01:38:13;100383.06;;;5.51;62.90
67842;BME280;54642;59.126;37.876;2023-05-02T01:40:43;100404.34;;;5.45;63.32
67842;BME280;54642;59.126;37.876;2023-05-02T01:43:14;100366.25;;;5.26;63.16
67842;BME280;54642;59.126;37.876;2023-05-02T01:45:43;100287.03;;;4.67;63.03
67842;BME280;54642;59.126;37.876;2023-05-02T01:48:12;100358.28;;;5.15;63.10
67842;BME280;54642;59.126;37.876;2023-05-02T01:50:40;100371.28;;;5.21;63.28
67842;BME280;54642;59.126;37.876;2023-05-02T01:53:10;100400.03;;;5.43;63.35
67842;BME280;54642;59.126;37.876;2023-05-02T01:55:41;100304.53;;;4.83;63.35
67842;BME280;54642;59.126;37.876;2023-05-02T01:58:09;100305.19;;;4.74;63.22
67842;BME280;54642;59.126;37.876;2023-05-02T02:00:37;100381.59;;;5.23;63.35
67842;BME280;54642;59.126;37.876;2023-05-02T02:03:05;100428.34;;;5.44;63.47
67842;BME280;54642;59.126;37.876;2023-05-02T02:05:33;100400.84;;;5.40;63.52
67842;BME280;54642;59.126;37.876;2023-05-02T02:08:01;100406.16;;;5.49;63.33
67842;BME280;54642;59.126;37.876;2023-05-02T02:10:31;100386.94;;;5.32;63.36
67842;BME280;54642;59.126;37.876;2023-05-02T02:13:06;100363.69;;;5.27;63.24
67842;BME280;54642;59.126;37.876;2023-05-02T02:15:38;100353.16;;;5.15;63.47
67842;BME280;54642;59.126;37.876;2023-05-02T02:18:12;100433.78;;;5.58;63.18
67842;BME280;54642;59.126;37.876;2023-05-02T02:20:42;100403.28;;;5.35;63.36
67842;BME280;54642;59.126;37.876;2023-05-02T02:23:09;100354.81;;;5.13;63.28
67842;BME280;54642;59.126;37.876;2023-05-02T02:25:36;100372.06;;;5.19;63.39
67842;BME280;54642;59.126;37.876;2023-05-02T02:28:03;100431.75;;;5.45;63.31
67842;BME280;54642;59.126;37.876;2023-05-02T02:30:29;100336.38;;;4.91;63.13
67842;BME280;54642;59.126;37.876;2023-05-02T02:32:55;100446.41;;;5.47;63.19
67842;BME280;54642;59.126;37.876;2023-05-02T02:35:21;100410.84;;;5.28;62.97
67842;BME280;54642;59.126;37.876;2023-05-02T02:38:05;100364.94;;;5.05;62.96
67842;BME280;54642;59.126;37.876;2023-05-02T02:40:48;100400.38;;;5.20;62.81
67842;BME280;54642;59.126;37.876;2023-05-02T02:43:35;100448.06;;;5.47;62.98
67842;BME280;54642;59.126;37.876;2023-05-02T02:46:21;100442.97;;;5.48;62.78
67842;BME280;54642;59.126;37.876;2023-05-02T02:51:56;100451.69;;;5.55;63.32
67842;BME280;54642;59.126;37.876;2023-05-02T02:54:34;100450.97;;;5.61;63.02
67842;BME280;54642;59.126;37.876;2023-05-02T02:57:12;100384.41;;;5.33;63.31
67842;BME280;54642;59.126;37.876;2023-05-02T02:59:57;100439.19;;;5.72;63.17
67842;BME280;54642;59.126;37.876;2023-05-02T03:02:27;100429.53;;;5.60;63.36
67842;BME280;54642;59.126;37.876;2023-05-02T03:04:56;100436.53;;;5.67;63.59
67842;BME280;54642;59.126;37.876;2023-05-02T03:07:26;100436.56;;;5.69;63.62
67842;BME280;54642;59.126;37.876;2023-05-02T03:09:52;100433.97;;;5.67;63.43
67842;BME280;54642;59.126;37.876;2023-05-02T03:12:21;100466.81;;;5.81;63.47
67842;BME280;54642;59.126;37.876;2023-05-02T03:14:49;100470.25;;;5.81;63.39
67842;BME280;54642;59.126;37.876;2023-05-02T03:17:16;100349.50;;;5.04;63.33
67842;BME280;54642;59.126;37.876;2023-05-02T03:19:42;100476.13;;;5.76;63.41
67842;BME280;54642;59.126;37.876;2023-05-02T03:22:08;100381.63;;;5.24;63.71
67842;BME280;54642;59.126;37.876;2023-05-02T03:24:35;100449.28;;;5.63;63.57
67842;BME280;54642;59.126;37.876;2023-05-02T03:27:03;100448.41;;;5.62;63.32
67842;BME280;54642;59.126;37.876;2023-05-02T03:29:36;100477.78;;;5.73;63.40
67842;BME280;54642;59.126;37.876;2023-05-02T03:32:02;100440.72;;;5.62;63.22
67842;BME280;54642;59.126;37.876;2023-05-02T03:34:28;100479.16;;;5.96;63.34
67842;BME280;54642;59.126;37.876;2023-05-02T03:36:55;100480.09;;;5.99;63.34
67842;BME280;54642;59.126;37.876;2023-05-02T03:39:21;100363.78;;;5.30;63.13
67842;BME280;54642;59.126;37.876;2023-05-02T03:41:49;100488.88;;;6.10;63.06
67842;BME280;54642;59.126;37.876;2023-05-02T03:44:19;100474.03;;;5.97;62.83
67842;BME280;54642;59.126;37.876;2023-05-02T03:46:46;100506.94;;;6.12;62.86
67842;BME280;54642;59.126;37.876;2023-05-02T03:49:12;100497.41;;;6.06;62.91
67842;BME280;54642;59.126;37.876;2023-05-02T03:51:44;100526.84;;;6.21;62.86
67842;BME280;54642;59.126;37.876;2023-05-02T03:54:18;100508.91;;;6.25;62.48
67842;BME280;54642;59.126;37.876;2023-05-02T03:56:45;100489.00;;;6.17;62.63
67842;BME280;54642;59.126;37.876;2023-05-02T03:59:27;100516.97;;;6.42;62.33
67842;BME280;54642;59.126;37.876;2023-05-02T04:02:31;100409.22;;;5.72;62.17
67842;BME280;54642;59.126;37.876;2023-05-02T04:05:02;100519.63;;;6.47;62.10
67842;BME280;54642;59.126;37.876;2023-05-02T04:07:34;100529.06;;;6.46;61.86
67842;BME280;54642;59.126;37.876;2023-05-02T04:10:03;100527.50;;;6.56;62.05
67842;BME280;54642;59.126;37.876;2023-05-02T04:12:33;100438.22;;;6.06;61.72
67842;BME280;54642;59.126;37.876;2023-05-02T04:15:00;100444.81;;;5.95;61.74
67842;BME280;54642;59.126;37.876;2023-05-02T04:17:28;100539.81;;;6.71;61.97
67842;BME280;54642;59.126;37.876;2023-05-02T04:19:55;100556.25;;;6.78;61.61
67842;BME280;54642;59.126;37.876;2023-05-02T04:22:24;100545.13;;;6.80;61.68
67842;BME280;54642;59.126;37.876;2023-05-02T04:24:55;100503.59;;;6.63;61.35
67842;BME280;54642;59.126;37.876;2023-05-02T04:27:23;100441.19;;;6.28;61.46
67842;BME280;54642;59.126;37.876;2023-05-02T04:29:50;100478.38;;;6.45;61.52
67842;BME280;54642;59.126;37.876;2023-05-02T04:32:17;100572.97;;;7.00;61.32
67842;BME280;54642;59.126;37.876;2023-05-02T04:34:45;100552.50;;;7.09;61.36
67842;BME280;54642;59.126;37.876;2023-05-02T04:37:13;100559.41;;;7.10;61.26
67842;BME280;54642;59.126;37.876;2023-05-02T04:39:42;100542.13;;;7.04;61.08
67842;BME280;54642;59.126;37.876;2023-05-02T04:42:14;100549.97;;;7.11;60.84
67842;BME280;54642;59.126;37.876;2023-05-02T04:44:48;100429.84;;;6.65;60.74
67842;BME280;54642;59.126;37.876;2023-05-02T04:47:15;100565.25;;;7.52;60.39
67842;BME280;54642;59.126;37.876;2023-05-02T04:49:42;100483.03;;;7.14;60.06
67842;BME280;54642;59.126;37.876;2023-05-02T04:52:09;100547.25;;;7.55;59.89
67842;BME280;54642;59.126;37.876;2023-05-02T04:54:35;100536.19;;;7.63;60.08
67842;BME280;54642;59.126;37.876;2023-05-02T04:57:01;100540.72;;;7.78;59.65
67842;BME280;54642;59.126;37.876;2023-05-02T04:59:31;100554.75;;;8.00;59.68
67842;BME280;54642;59.126;37.876;2023-05-02T05:01:59;100548.88;;;8.11;59.41
67842;BME280;54642;59.126;37.876;2023-05-02T05:04:26;100560.38;;;8.36;59.17
67842;BME280;54642;59.126;37.876;2023-05-02T05:06:52;100539.91;;;8.48;58.84
67842;BME280;54642;59.126;37.876;2023-05-02T05:09:20;100544.34;;;8.58;58.51
67842;BME280;54642;59.126;37.876;2023-05-02T05:11:46;100546.25;;;8.76;58.15
67842;BME280;54642;59.126;37.876;2023-05-02T05:14:14;100516.91;;;8.73;57.75
67842;BME280;54642;59.126;37.876;2023-05-02T05:16:43;100529.94;;;8.87;57.80
67842;BME280;54642;59.126;37.876;2023-05-02T05:19:09;100504.84;;;8.73;57.38
67842;BME280;54642;59.126;37.876;2023-05-02T05:21:35;100531.78;;;8.97;57.26
67842;BME280;54642;59.126;37.876;2023-05-02T05:24:02;100510.25;;;8.98;57.09
67842;BME280;54642;59.126;37.876;2023-05-02T05:26:28;100533.72;;;9.20;56.72
67842;BME280;54642;59.126;37.876;2023-05-02T05:28:54;100548.44;;;9.27;56.37
67842;BME280;54642;59.126;37.876;2023-05-02T05:31:23;100547.66;;;9.40;55.92
67842;BME280;54642;59.126;37.876;2023-05-02T05:33:53;100544.25;;;9.43;55.62
67842;BME280;54642;59.126;37.876;2023-05-02T05:36:21;100530.41;;;9.42;55.50
67842;BME280;54642;59.126;37.876;2023-05-02T05:38:47;100540.94;;;9.67;55.77
67842;BME280;54642;59.126;37.876;2023-05-02T05:41:13;100537.56;;;9.82;54.99
67842;BME280;54642;59.126;37.876;2023-05-02T05:43:44;100522.97;;;9.90;54.62
67842;BME280;54642;59.126;37.876;2023-05-02T05:46:11;100536.88;;;10.15;54.06
67842;BME280;54642;59.126;37.876;2023-05-02T05:48:37;100497.16;;;10.10;53.24
67842;BME280;54642;59.126;37.876;2023-05-02T05:51:04;100537.00;;;10.34;52.71
67842;BME280;54642;59.126;37.876;2023-05-02T05:53:31;100524.84;;;10.28;52.86
67842;BME280;54642;59.126;37.876;2023-05-02T05:55:58;100530.03;;;10.26;52.86
67842;BME280;54642;59.126;37.876;2023-05-02T05:58:24;100544.75;;;10.34;52.13
67842;BME280;54642;59.126;37.876;2023-05-02T06:00:52;100532.69;;;10.31;52.15
67842;BME280;54642;59.126;37.876;2023-05-02T06:03:19;100544.81;;;10.46;51.55
67842;BME280;54642;59.126;37.876;2023-05-02T06:05:45;100528.44;;;10.50;51.78
67842;BME280;54642;59.126;37.876;2023-05-02T06:08:11;100545.75;;;10.65;51.61
67842;BME280;54642;59.126;37.876;2023-05-02T06:10:37;100546.59;;;10.64;51.37
67842;BME280;54642;59.126;37.876;2023-05-02T06:13:03;100516.34;;;10.51;51.54
67842;BME280;54642;59.126;37.876;2023-05-02T06:15:35;100549.19;;;10.75;51.88
67842;BME280;54642;59.126;37.876;2023-05-02T06:18:03;100472.19;;;10.29;51.13
67842;BME280;54642;59.126;37.876;2023-05-02T06:20:29;100521.56;;;10.64;51.32
67842;BME280;54642;59.126;37.876;2023-05-02T06:22:55;100523.28;;;10.78;51.14
67842;BME280;54642;59.126;37.876;2023-05-02T06:25:21;100547.50;;;10.92;51.05
67842;BME280;54642;59.126;37.876;2023-05-02T06:27:47;100538.00;;;10.88;50.56
67842;BME280;54642;59.126;37.876;2023-05-02T06:30:13;100542.34;;;10.87;50.73
67842;BME280;54642;59.126;37.876;2023-05-02T06:32:39;100541.47;;;10.84;51.03
67842;BME280;54642;59.126;37.876;2023-05-02T06:35:09;100538.00;;;10.86;51.11
67842;BME280;54642;59.126;37.876;2023-05-02T06:37:36;100497.38;;;10.72;51.01
67842;BME280;54642;59.126;37.876;2023-05-02T06:40:02;100527.63;;;10.93;51.05
67842;BME280;54642;59.126;37.876;2023-05-02T06:42:29;100506.91;;;10.97;50.72
67842;BME280;54642;59.126;37.876;2023-05-02T06:44:55;100487.00;;;10.98;50.49
67842;BME280;54642;59.126;37.876;2023-05-02T06:47:21;100500.00;;;11.12;50.46
67842;BME280;54642;59.126;37.876;2023-05-02T06:49:51;100545.81;;;11.37;50.15
67842;BME280;54642;59.126;37.876;2023-05-02T06:52:19;100415.28;;;10.49;50.19
67842;BME280;54642;59.126;37.876;2023-05-02T06:54:45;100546.69;;;11.38;50.09
67842;BME280;54642;59.126;37.876;2023-05-02T06:57:11;100544.94;;;11.38;50.09
67842;BME280;54642;59.126;37.876;2023-05-02T06:59:37;100533.69;;;11.33;49.94
67842;BME280;54642;59.126;37.876;2023-05-02T07:02:03;100534.59;;;11.31;50.34
67842;BME280;54642;59.126;37.876;2023-05-02T07:04:29;100530.25;;;11.36;50.08
67842;BME280;54642;59.126;37.876;2023-05-02T07:06:54;100534.56;;;11.48;49.89
67842;BME280;54642;59.126;37.876;2023-05-02T07:09:20;100529.34;;;11.61;49.34
67842;BME280;54642;59.126;37.876;2023-05-02T07:11:46;100526.72;;;11.80;49.51
67842;BME280;54642;59.126;37.876;2023-05-02T07:14:12;100528.41;;;11.89;48.55
67842;BME280;54642;59.126;37.876;2023-05-02T07:16:38;100520.63;;;11.87;48.05
67842;BME280;54642;59.126;37.876;2023-05-02T07:19:04;100519.75;;;12.05;48.32
67842;BME280;54642;59.126;37.876;2023-05-02T07:21:31;100518.84;;;12.22;47.92
67842;BME280;54642;59.126;37.876;2023-05-02T07:23:57;100535.13;;;12.57;47.80
67842;BME280;54642;59.126;37.876;2023-05-02T07:26:23;100519.38;;;12.77;47.78
67842;BME280;54642;59.126;37.876;2023-05-02T07:28:50;100442.41;;;12.53;47.22
67842;BME280;54642;59.126;37.876;2023-05-02T07:31:16;100520.84;;;13.14;46.71
67842;BME280;54642;59.126;37.876;2023-05-02T07:33:42;100520.81;;;13.20;46.19
67842;BME280;54642;59.126;37.876;2023-05-02T07:36:08;100508.69;;;13.16;45.82
67842;BME280;54642;59.126;37.876;2023-05-02T07:38:34;100515.53;;;13.26;45.93
67842;BME280;54642;59.126;37.876;2023-05-02T07:41:00;100512.09;;;13.24;45.33
67842;BME280;54642;59.126;37.876;2023-05-02T07:43:26;100516.38;;;13.33;45.06
67842;BME280;54642;59.126;37.876;2023-05-02T07:45:52;100519.63;;;13.58;44.95
67842;BME280;54642;59.126;37.876;2023-05-02T07:48:18;100506.53;;;13.64;44.32
67842;BME280;54642;59.126;37.876;2023-05-02T07:50:44;100522.88;;;13.79;44.18
67842;BME280;54642;59.126;37.876;2023-05-02T07:53:10;100534.06;;;13.90;43.61
67842;BME280;54642;59.126;37.876;2023-05-02T07:55:36;100433.84;;;13.44;43.58
67842;BME280;54642;59.126;37.876;2023-05-02T07:58:02;100470.88;;;13.71;43.06
67842;BME280;54642;59.126;37.876;2023-05-02T08:00:28;100501.00;;;13.95;42.84
67842;BME280;54642;59.126;37.876;2023-05-02T08:02:55;100518.19;;;14.11;42.58
67842;BME280;54642;59.126;37.876;2023-05-02T08:05:21;100517.34;;;14.09;42.79
67842;BME280;54642;59.126;37.876;2023-05-02T08:07:47;100517.25;;;14.14;42.75
67842;BME280;54642;59.126;37.876;2023-05-02T08:10:13;100513.03;;;14.05;42.31
67842;BME280;54642;59.126;37.876;2023-05-02T08:12:40;100521.50;;;14.23;42.54
67842;BME280;54642;59.126;37.876;2023-05-02T08:15:07;100518.66;;;14.41;42.22
67842;BME280;54642;59.126;37.876;2023-05-02T08:17:36;100521.47;;;14.26;41.95
67842;BME280;54642;59.126;37.876;2023-05-02T08:20:02;100461.88;;;13.98;43.08
67842;BME280;54642;59.126;37.876;2023-05-02T08:22:28;100501.25;;;14.43;42.97
67842;BME280;54642;59.126;37.876;2023-05-02T08:24:57;100514.88;;;14.65;42.42
67842;BME280;54642;59.126;37.876;2023-05-02T08:27:34;100480.50;;;14.34;41.98
67842;BME280;54642;59.126;37.876;2023-05-02T08:30:00;100522.72;;;14.64;42.49
67842;BME280;54642;59.126;37.876;2023-05-02T08:32:26;100505.75;;;14.32;42.08
67842;BME280;54642;59.126;37.876;2023-05-02T08:34:54;100510.34;;;14.13;42.83
67842;BME280;54642;59.126;37.876;2023-05-02T08:37:21;100506.09;;;14.04;42.59
67842;BME280;54642;59.126;37.876;2023-05-02T08:39:48;100503.50;;;14.03;42.48
67842;BME280;54642;59.126;37.876;2023-05-02T08:42:14;100505.16;;;14.10;42.61
67842;BME280;54642;59.126;37.876;2023-05-02T08:44:40;100498.03;;;14.23;42.26
67842;BME280;54642;59.126;37.876;2023-05-02T08:47:10;100514.53;;;14.25;42.15
67842;BME280;54642;59.126;37.876;2023-05-02T08:49:38;100492.00;;;14.21;42.02
67842;BME280;54642;59.126;37.876;2023-05-02T08:52:05;100496.50;;;14.09;41.92
67842;BME280;54642;59.126;37.876;2023-05-02T08:54:32;100502.72;;;13.95;42.23
67842;BME280;54642;59.126;37.876;2023-05-02T08:56:59;100510.75;;;13.76;42.80
67842;BME280;54642;59.126;37.876;2023-05-02T08:59:28;100502.78;;;13.90;43.26
67842;BME280;54642;59.126;37.876;2023-05-02T09:01:58;100455.75;;;14.02;42.85
67842;BME280;54642;59.126;37.876;2023-05-02T09:04:30;100469.97;;;14.43;42.78
67842;BME280;54642;59.126;37.876;2023-05-02T09:06:57;100524.47;;;14.65;41.56
67842;BME280;54642;59.126;37.876;2023-05-02T09:09:23;100504.84;;;14.36;41.77
67842;BME280;54642;59.126;37.876;2023-05-02T09:11:51;100470.47;;;14.05;42.22
67842;BME280;54642;59.126;37.876;2023-05-02T09:14:17;100442.06;;;13.86;41.96
67842;BME280;54642;59.126;37.876;2023-05-02T09:16:43;100500.00;;;14.05;42.77
67842;BME280;54642;59.126;37.876;2023-05-02T09:19:10;100488.47;;;14.23;43.13
67842;BME280;54642;59.126;37.876;2023-05-02T09:21:47;100487.16;;;14.57;43.08
67842;BME280;54642;59.126;37.876;2023-05-02T09:24:21;100486.03;;;14.76;42.14
67842;BME280;54642;59.126;37.876;2023-05-02T09:29:27;100467.38;;;15.01;41.93
67842;BME280;54642;59.126;37.876;2023-05-02T09:31:55;100444.03;;;14.92;41.60
67842;BME280;54642;59.126;37.876;2023-05-02T09:34:21;100477.63;;;15.12;41.24
67842;BME280;54642;59.126;37.876;2023-05-02T09:36:49;100433.59;;;14.92;41.16
67842;BME280;54642;59.126;37.876;2023-05-02T09:39:19;100459.41;;;15.09;40.97
67842;BME280;54642;59.126;37.876;2023-05-02T09:41:46;100472.19;;;15.25;41.26
67842;BME280;54642;59.126;37.876;2023-05-02T09:44:17;100474.66;;;15.33;40.81
67842;BME280;54642;59.126;37.876;2023-05-02T09:46:51;100427.31;;;15.03;40.57
67842;BME280;54642;59.126;37.876;2023-05-02T09:49:18;100462.81;;;15.12;40.85
67842;BME280;54642;59.126;37.876;2023-05-02T09:51:48;100458.97;;;14.82;41.05
67842;BME280;54642;59.126;37.876;2023-05-02T09:54:35;100468.00;;;14.61;41.53
67842;BME280;54642;59.126;37.876;2023-05-02T09:57:02;100456.72;;;14.57;41.34
67842;BME280;54642;59.126;37.876;2023-05-02T09:59:28;100453.59;;;14.93;41.38
67842;BME280;54642;59.126;37.876;2023-05-02T10:01:56;100448.75;;;15.21;40.75
67842;BME280;54642;59.126;37.876;2023-05-02T10:04:23;100414.78;;;15.22;40.82
67842;BME280;54642;59.126;37.876;2023-05-02T10:06:51;100436.72;;;15.59;40.51
67842;BME280;54642;59.126;37.876;2023-05-02T10:09:18;100390.19;;;15.34;40.36
67842;BME280;54642;59.126;37.876;2023-05-02T10:11:45;100437.50;;;15.64;40.39
67842;BME280;54642;59.126;37.876;2023-05-02T10:14:13;100430.97;;;15.41;40.52
67842;BME280;54642;59.126;37.876;2023-05-02T10:17:09;100418.84;;;15.39;40.66
67842;BME280;54642;59.126;37.876;2023-05-02T10:19:47;100421.03;;;15.60;40.62
67842;BME280;54642;59.126;37.876;2023-05-02T10:22:18;100420.06;;;15.64;39.99
67842;BME280;54642;59.126;37.876;2023-05-02T10:24:47;100418.22;;;15.70;39.99
67842;BME280;54642;59.126;37.876;2023-05-02T10:27:14;100424.00;;;15.87;39.79
67842;BME280;54642;59.126;37.876;2023-05-02T10:29:41;100424.78;;;15.92;39.67
67842;BME280;54642;59.126;37.876;2023-05-02T10:32:07;100421.38;;;15.87;39.08
67842;BME280;54642;59.126;37.876;2023-05-02T10:34:35;100397.34;;;15.68;39.26
67842;BME280;54642;59.126;37.876;2023-05-02T10:37:01;100419.66;;;15.86;39.42
67842;BME280;54642;59.126;37.876;2023-05-02T10:39:28;100418.78;;;15.87;38.94
67842;BME280;54642;59.126;37.876;2023-05-02T10:41:55;100423.22;;;15.84;39.01
67842;BME280;54642;59.126;37.876;2023-05-02T10:44:37;100428.34;;;15.88;39.23
67842;BME280;54642;59.126;37.876;2023-05-02T10:49:57;100425.75;;;15.87;38.31
67842;BME280;54642;59.126;37.876;2023-05-02T10:52:29;100421.38;;;15.87;38.69
67842;BME280;54642;59.126;37.876;2023-05-02T11:02:54;100412.31;;;16.04;38.38
67842;BME280;54642;59.126;37.876;2023-05-02T11:05:21;100409.66;;;16.07;38.25
67842;BME280;54642;59.126;37.876;2023-05-02T11:07:48;100404.34;;;16.10;38.02
67842;BME280;54642;59.126;37.876;2023-05-02T11:15:52;100411.84;;;16.25;38.04
67842;BME280;54642;59.126;37.876;2023-05-02T11:18:04;100388.66;;;16.10;37.56
67842;BME280;54642;59.126;37.876;2023-05-02T11:20:34;100362.72;;;16.00;38.14
67842;BME280;54642;59.126;37.876;2023-05-02T11:28:41;100372.47;;;15.94;38.29
67842;BME280;54642;59.126;37.876;2023-05-02T11:34:00;100350.53;;;16.01;37.76
67842;BME280;54642;59.126;37.876;2023-05-02T11:36:33;100382.19;;;16.26;37.71
67842;BME280;54642;59.126;37.876;2023-05-02T11:39:02;100368.13;;;16.30;37.70
67842;BME280;54642;59.126;37.876;2023-05-02T11:41:43;100362.13;;;16.27;37.58
67842;BME280;54642;59.126;37.876;2023-05-02T11:44:11;100351.16;;;16.11;37.43
67842;BME280;54642;59.126;37.876;2023-05-02T11:46:40;100379.41;;;16.32;37.32
67842;BME280;54642;59.126;37.876;2023-05-02T11:49:06;100353.34;;;16.29;36.86
67842;BME280;54642;59.126;37.876;2023-05-02T11:51:33;100359.41;;;16.31;36.65
67842;BME280;54642;59.126;37.876;2023-05-02T11:53:59;100360.22;;;16.33;36.60
67842;BME280;54642;59.126;37.876;2023-05-02T11:56:25;100362.91;;;16.30;36.80
67842;BME280;54642;59.126;37.876;2023-05-02T11:59:02;100353.97;;;16.41;36.83
67842;BME280;54642;59.126;37.876;2023-05-02T12:01:28;100342.44;;;16.48;36.49
67842;BME280;54642;59.126;37.876;2023-05-02T12:04:05;100332.88;;;16.47;36.46
67842;BME280;54642;59.126;37.876;2023-05-02T12:06:32;100336.63;;;16.36;36.07
67842;BME280;54642;59.126;37.876;2023-05-02T12:09:14;100343.91;;;16.22;36.62
67842;BME280;54642;59.126;37.876;2023-05-02T12:11:50;100297.44;;;15.99;36.64
67842;BME280;54642;59.126;37.876;2023-05-02T12:14:16;100338.56;;;16.28;36.95
67842;BME280;54642;59.126;37.876;2023-05-02T12:16:42;100316.81;;;16.26;36.45
67842;BME280;54642;59.126;37.876;2023-05-02T12:19:08;100335.97;;;16.27;36.68
67842;BME280;54642;59.126;37.876;2023-05-02T12:21:34;100281.09;;;15.89;36.27
67842;BME280;54642;59.126;37.876;2023-05-02T12:24:00;100334.72;;;16.06;36.07
67842;BME280;54642;59.126;37.876;2023-05-02T12:26:27;100291.03;;;15.72;36.19
67842;BME280;54642;59.126;37.876;2023-05-02T12:28:58;100324.50;;;15.95;36.26
67842;BME280;54642;59.126;37.876;2023-05-02T12:31:25;100334.06;;;15.97;36.40
67842;BME280;54642;59.126;37.876;2023-05-02T12:33:55;100326.22;;;15.97;36.26
67842;BME280;54642;59.126;37.876;2023-05-02T12:36:23;100327.25;;;15.90;36.49
67842;BME280;54642;59.126;37.876;2023-05-02T12:39:00;100312.16;;;16.01;36.44
67842;BME280;54642;59.126;37.876;2023-05-02T12:41:37;100304.53;;;15.92;36.20
67842;BME280;54642;59.126;37.876;2023-05-02T12:44:04;100309.50;;;16.05;36.30
67842;BME280;54642;59.126;37.876;2023-05-02T12:46:32;100308.53;;;16.07;35.97
67842;BME280;54642;59.126;37.876;2023-05-02T12:49:05;100311.34;;;15.99;35.82
67842;BME280;54642;59.126;37.876;2023-05-02T12:51:34;100309.72;;;15.95;35.85
67842;BME280;54642;59.126;37.876;2023-05-02T12:54:01;100280.72;;;15.66;35.53
67842;BME280;54642;59.126;37.876;2023-05-02T12:56:27;100319.50;;;15.86;35.48
67842;BME280;54642;59.126;37.876;2023-05-02T12:58:57;100311.00;;;15.76;35.51
67842;BME280;54642;59.126;37.876;2023-05-02T13:01:28;100317.81;;;15.83;35.57
67842;BME280;54642;59.126;37.876;2023-05-02T13:03:55;100304.81;;;15.80;35.34
67842;BME280;54642;59.126;37.876;2023-05-02T13:06:21;100301.31;;;15.81;35.42
67842;BME280;54642;59.126;37.876;2023-05-02T13:08:47;100306.47;;;15.84;35.13
67842;BME280;54642;59.126;37.876;2023-05-02T13:11:13;100255.41;;;15.68;35.25
67842;BME280;54642;59.126;37.876;2023-05-02T13:13:40;100286.91;;;16.00;35.19
67842;BME280;54642;59.126;37.876;2023-05-02T13:16:06;100273.84;;;16.00;34.82
67842;BME280;54642;59.126;37.876;2023-05-02T13:18:32;100276.72;;;15.90;34.69
67842;BME280;54642;59.126;37.876;2023-05-02T13:20:58;100269.97;;;15.81;34.93
67842;BME280;54642;59.126;37.876;2023-05-02T13:23:24;100271.00;;;15.72;34.95
67842;BME280;54642;59.126;37.876;2023-05-02T13:25:50;100276.16;;;15.75;34.90
67842;BME280;54642;59.126;37.876;2023-05-02T13:28:16;100269.09;;;15.80;34.98
67842;BME280;54642;59.126;37.876;2023-05-02T13:30:42;100277.75;;;15.82;34.91